Time;durP1;ratioP1;P1;durP2;ratioP2;P2;SDS_P1;SDS_P2;PMS_P1;PMS_P2;Temp;Humidity;BMP_temperature;BMP_pressure;BME280_temperature;BME280_humidity;BME280_pressure;Samples;Min_cycle;Max_cycle;Signal;HPM_P1;HPM_P2
2023/09/17 03:03:09;;;;;;;7.78;4.75;;;20.10;93.70;;;;;;5057658;28;20044;-85
2023/09/17 03:05:34;;;;;;;9.57;4.60;;;20.10;93.70;;;;;;5043665;28;20025;-86
2023/09/17 03:08:00;;;;;;;7.95;4.85;;;20.20;93.70;;;;;;5039069;28;20020;-86
2023/09/17 03:10:26;;;;;;;11.18;4.22;;;20.10;93.70;;;;;;5043013;28;20017;-85
2023/09/17 03:12:52;;;;;;;8.48;4.75;;;20.20;93.70;;;;;;5047821;28;20028;-85
2023/09/17 03:15:18;;;;;;;7.63;4.07;;;20.10;93.70;;;;;;5036922;28;20013;-85
2023/09/17 03:17:43;;;;;;;10.02;4.50;;;20.10;93.70;;;;;;5046997;28;20413;-85
2023/09/17 03:20:22;;;;;;;9.05;4.97;;;20.10;93.70;;;;;;5047707;28;20021;-86
2023/09/17 03:22:48;;;;;;;12.15;4.90;;;20.10;93.70;;;;;;5048274;28;20023;-85
2023/09/17 03:25:14;;;;;;;8.63;4.63;;;19.70;93.60;;;;;;5046372;28;20013;-86
2023/09/17 03:27:43;;;;;;;11.20;5.68;;;20.10;93.70;;;;;;5066717;28;20033;-86
2023/09/17 03:30:09;;;;;;;8.73;5.55;;;20.10;93.70;;;;;;5050408;28;20023;-85
2023/09/17 03:32:35;;;;;;;7.75;4.65;;;20.10;93.70;;;;;;5062751;28;20358;-86
2023/09/17 03:35:01;;;;;;;5.70;4.20;;;20.10;93.70;;;;;;5072823;28;20056;-86
2023/09/17 03:37:27;;;;;;;9.30;4.63;;;20.10;93.70;;;;;;5067707;28;20074;-85
2023/09/17 03:40:10;;;;;;;7.32;3.90;;;20.10;93.70;;;;;;5052691;28;20485;-86
2023/09/17 03:42:37;;;;;;;9.57;4.47;;;20.10;93.70;;;;;;5042821;28;20017;-85
2023/09/17 03:45:05;;;;;;;7.35;3.42;;;20.10;93.70;;;;;;5056246;28;20021;-85
2023/09/17 03:47:32;;;;;;;9.68;4.88;;;20.10;93.70;;;;;;5038786;28;20056;-85
2023/09/17 03:49:58;;;;;;;7.25;4.88;;;20.10;93.70;;;;;;5043547;28;20029;-85
2023/09/17 03:52:24;;;;;;;9.52;5.13;;;20.10;93.70;;;;;;5063035;28;20066;-86
2023/09/17 03:54:49;;;;;;;7.97;5.18;;;20.20;93.70;;;;;;5064829;28;20474;-86
2023/09/17 03:57:15;;;;;;;8.65;4.90;;;20.10;93.70;;;;;;5058976;28;20032;-86
2023/09/17 03:59:41;;;;;;;12.80;5.47;;;20.10;93.70;;;;;;5062716;28;20074;-85
2023/09/17 04:02:06;;;;;;;9.43;4.50;;;20.10;93.70;;;;;;5051704;28;20070;-86
2023/09/17 04:04:33;;;;;;;6.72;4.95;;;20.10;93.70;;;;;;5046247;28;20017;-85
2023/09/17 04:06:58;;;;;;;9.75;5.40;;;20.10;94.00;;;;;;5051437;28;20099;-86
2023/09/17 04:09:25;;;;;;;6.65;4.35;;;20.10;94.00;;;;;;5042940;28;20109;-86
2023/09/17 04:11:50;;;;;;;9.52;4.85;;;20.10;93.70;;;;;;5062783;28;20059;-85
2023/09/17 04:14:19;;;;;;;17.67;5.72;;;20.10;93.70;;;;;;5051061;28;20013;-86
2023/09/17 04:16:45;;;;;;;8.30;4.40;;;20.10;93.70;;;;;;5052995;28;20612;-85
2023/09/17 04:19:11;;;;;;;7.88;5.00;;;20.10;93.70;;;;;;5045378;28;20124;-85
2023/09/17 04:21:37;;;;;;;7.80;5.40;;;20.10;93.70;;;;;;5046855;28;20080;-85
2023/09/17 04:24:03;;;;;;;8.77;5.10;;;20.10;93.70;;;;;;5055898;28;20094;-85
2023/09/17 04:26:30;;;;;;;7.43;4.90;;;20.10;93.70;;;;;;5064529;28;20024;-85
2023/09/17 04:28:56;;;;;;;6.75;4.38;;;20.10;93.60;;;;;;5045719;28;20504;-85
2023/09/17 04:31:22;;;;;;;8.70;4.55;;;20.10;93.60;;;;;;5067352;28;20024;-86
2023/09/17 04:33:47;;;;;;;12.27;4.50;;;20.10;93.60;;;;;;5062720;28;20027;-85
2023/09/17 04:36:13;;;;;;;6.60;4.70;;;20.10;93.60;;;;;;5052372;28;20020;-86
2023/09/17 04:38:38;;;;;;;12.57;4.78;;;20.10;93.60;;;;;;5066032;28;20060;-86
2023/09/17 04:41:04;;;;;;;8.25;4.93;;;20.10;93.60;;;;;;5066513;28;20086;-85
2023/09/17 04:43:31;;;;;;;6.22;4.65;;;20.10;93.70;;;;;;5063743;28;20100;-85
2023/09/17 04:45:59;;;;;;;9.75;4.72;;;20.10;94.00;;;;;;5055584;28;20024;-85
2023/09/17 04:48:24;;;;;;;10.20;5.10;;;20.10;93.60;;;;;;5074060;28;20020;-85
2023/09/17 04:50:50;;;;;;;10.00;4.50;;;20.10;93.60;;;;;;5067938;28;20021;-86
2023/09/17 04:53:16;;;;;;;7.63;4.45;;;20.10;93.60;;;;;;5048734;28;20024;-86
2023/09/17 04:55:44;;;;;;;8.15;4.85;;;20.10;93.60;;;;;;5067742;28;20024;-86
2023/09/17 04:58:17;;;;;;;13.50;5.63;;;20.10;93.60;;;;;;5066148;28;20103;-85
2023/09/17 05:00:44;;;;;;;10.00;6.25;;;20.10;93.60;;;;;;5066339;28;20104;-85
2023/09/17 05:03:11;;;;;;;8.95;5.65;;;20.10;93.60;;;;;;5054044;28;20052;-85
2023/09/17 05:05:37;;;;;;;9.68;6.72;;;20.10;93.60;;;;;;5053305;28;20049;-85
2023/09/17 05:08:03;;;;;;;14.75;6.90;;;20.00;93.60;;;;;;5069475;28;20056;-85
2023/09/17 05:10:29;;;;;;;12.98;8.32;;;20.10;93.60;;;;;;5048844;28;20428;-85
2023/09/17 05:12:56;;;;;;;10.95;7.05;;;20.10;93.60;;;;;;5062464;28;20021;-86
2023/09/17 05:15:22;;;;;;;9.02;5.65;;;20.10;93.60;;;;;;5045871;28;20036;-86
2023/09/17 05:17:48;;;;;;;12.90;5.60;;;20.10;93.60;;;;;;5046418;28;20025;-85
2023/09/17 05:20:13;;;;;;;8.52;4.80;;;20.10;93.60;;;;;;5051414;28;20028;-86
2023/09/17 05:22:39;;;;;;;6.85;4.18;;;20.10;93.60;;;;;;5064486;28;20028;-86
2023/09/17 05:25:08;;;;;;;8.95;4.68;;;20.10;93.60;;;;;;5053038;28;20116;-85
2023/09/17 05:27:33;;;;;;;9.70;4.28;;;20.10;93.60;;;;;;5063785;28;20355;-85
2023/09/17 05:30:00;;;;;;;10.60;4.70;;;20.10;93.60;;;;;;5063230;28;20028;-85
2023/09/17 05:32:26;;;;;;;6.32;4.55;;;20.00;93.60;;;;;;5064965;28;20032;-85
2023/09/17 05:34:52;;;;;;;8.57;4.68;;;20.00;93.50;;;;;;5067060;28;20044;-85
2023/09/17 05:37:18;;;;;;;10.00;4.80;;;20.00;93.50;;;;;;5063946;28;20067;-85
2023/09/17 05:39:43;;;;;;;11.30;4.75;;;20.00;93.50;;;;;;5041375;28;20393;-86
2023/09/17 05:42:09;;;;;;;12.82;4.78;;;20.10;93.60;;;;;;5060875;28;20524;-85
2023/09/17 05:44:34;;;;;;;11.38;4.82;;;20.00;93.50;;;;;;5047902;28;20024;-84
2023/09/17 05:47:00;;;;;;;8.02;4.53;;;20.10;93.60;;;;;;5060988;28;20025;-85
2023/09/17 05:49:25;;;;;;;7.53;4.38;;;20.00;93.50;;;;;;5057204;28;20017;-85
2023/09/17 05:51:51;;;;;;;12.65;5.55;;;20.10;93.60;;;;;;5063621;28;20481;-85
2023/09/17 05:54:17;;;;;;;11.73;4.68;;;20.10;93.60;;;;;;5055778;28;20092;-86
2023/09/17 05:56:43;;;;;;;11.15;5.10;;;20.10;93.50;;;;;;5051460;28;20021;-86
2023/09/17 05:59:08;;;;;;;7.30;4.68;;;20.00;93.50;;;;;;5065675;28;20095;-86
2023/09/17 06:01:34;;;;;;;13.20;4.80;;;20.00;93.50;;;;;;5040255;28;20021;-86
2023/09/17 06:04:00;;;;;;;9.55;4.38;;;20.10;93.50;;;;;;5055219;28;20044;-86
2023/09/17 06:06:25;;;;;;;11.55;4.97;;;20.00;93.50;;;;;;5060735;28;20028;-85
2023/09/17 06:08:52;;;;;;;13.63;5.05;;;20.00;93.50;;;;;;5040048;28;20028;-85
2023/09/17 06:11:18;;;;;;;11.38;4.90;;;20.00;93.50;;;;;;5056405;28;20070;-85
2023/09/17 06:13:44;;;;;;;7.65;4.60;;;20.00;93.50;;;;;;5043423;28;20543;-84
2023/09/17 06:16:09;;;;;;;12.88;5.72;;;20.00;93.50;;;;;;5049041;28;20033;-85
2023/09/17 06:18:35;;;;;;;9.55;5.90;;;20.00;93.50;;;;;;5059627;28;20021;-86
2023/09/17 06:21:01;;;;;;;8.15;5.03;;;20.00;93.50;;;;;;5047996;28;20026;-85
2023/09/17 06:23:27;;;;;;;10.38;5.35;;;20.00;93.50;;;;;;5040588;28;20053;-85
2023/09/17 06:25:53;;;;;;;9.93;5.20;;;20.00;93.50;;;;;;5060722;28;20098;-86
2023/09/17 06:28:18;;;;;;;9.57;5.45;;;20.00;93.60;;;;;;5043984;28;20028;-85
2023/09/17 06:30:45;;;;;;;11.27;5.32;;;20.00;93.90;;;;;;5048465;28;20142;-86
2023/09/17 06:33:11;;;;;;;18.08;6.30;;;20.00;93.60;;;;;;5040564;28;20382;-86
2023/09/17 06:35:36;;;;;;;8.27;5.43;;;20.00;93.60;;;;;;5063065;28;20025;-85
2023/09/17 06:38:02;;;;;;;10.82;6.35;;;20.00;93.60;;;;;;5038161;28;20036;-86
2023/09/17 06:40:27;;;;;;;13.05;5.50;;;20.00;93.60;;;;;;5036613;28;20031;-86
2023/09/17 06:42:53;;;;;;;17.27;5.88;;;20.10;93.60;;;;;;5060846;28;20052;-86
2023/09/17 06:45:19;;;;;;;10.00;5.50;;;20.00;93.60;;;;;;5060268;28;20056;-86
2023/09/17 06:47:45;;;;;;;8.60;5.60;;;20.00;93.60;;;;;;5051055;28;20031;-85
2023/09/17 06:50:11;;;;;;;9.43;5.57;;;20.00;93.60;;;;;;5049821;28;20499;-86
2023/09/17 06:52:37;;;;;;;10.27;6.00;;;20.00;93.60;;;;;;5039603;28;20113;-86
2023/09/17 06:55:04;;;;;;;11.95;6.35;;;20.00;93.60;;;;;;5055177;28;20033;-86
2023/09/17 06:57:30;;;;;;;12.98;5.28;;;20.00;93.60;;;;;;5047380;28;20028;-86
2023/09/17 06:59:56;;;;;;;14.50;5.45;;;20.00;93.60;;;;;;5047078;28;20031;-86
2023/09/17 07:02:22;;;;;;;11.18;6.22;;;20.00;93.60;;;;;;5059731;28;20112;-86
2023/09/17 07:04:47;;;;;;;13.52;5.93;;;20.10;93.70;;;;;;5045430;28;20039;-86
2023/09/17 07:07:13;;;;;;;8.65;5.60;;;20.10;93.70;;;;;;5044623;28;20032;-86
2023/09/17 07:09:39;;;;;;;12.50;6.40;;;20.00;93.60;;;;;;5063884;28;20029;-85
2023/09/17 07:12:05;;;;;;;12.30;6.00;;;20.00;93.60;;;;;;5042190;28;20083;-86
2023/09/17 07:14:31;;;;;;;11.75;5.78;;;20.00;93.60;;;;;;5057369;28;20100;-85
2023/09/17 07:16:56;;;;;;;10.13;6.18;;;20.00;93.60;;;;;;5041459;28;20697;-85
2023/09/17 07:19:22;;;;;;;12.10;5.97;;;20.00;93.70;;;;;;5059269;28;20497;-86
2023/09/17 07:21:48;;;;;;;10.93;6.10;;;20.00;93.70;;;;;;5048302;28;20021;-86
2023/09/17 07:24:13;;;;;;;12.50;6.35;;;20.00;93.70;;;;;;5066269;28;20025;-85
2023/09/17 07:26:39;;;;;;;10.15;5.57;;;20.10;93.70;;;;;;5059125;28;20025;-86
2023/09/17 07:29:05;;;;;;;18.85;7.13;;;20.10;93.70;;;;;;5048581;28;20722;-86
2023/09/17 07:31:31;;;;;;;10.20;6.13;;;20.00;93.70;;;;;;5046225;28;20017;-86
2023/09/17 07:33:56;;;;;;;11.35;6.43;;;20.00;93.70;;;;;;5044843;28;20090;-85
2023/09/17 07:36:22;;;;;;;19.15;6.70;;;20.00;93.70;;;;;;5063366;28;20025;-87
2023/09/17 07:38:47;;;;;;;11.02;5.95;;;20.00;93.70;;;;;;5049057;28;20371;-86
2023/09/17 07:41:13;;;;;;;14.23;6.88;;;20.10;93.70;;;;;;5047437;28;20430;-86
2023/09/17 07:43:38;;;;;;;13.88;6.57;;;20.00;93.70;;;;;;5048868;28;20020;-86
2023/09/17 07:46:05;;;;;;;9.20;5.90;;;20.00;93.70;;;;;;5050525;28;20032;-86
2023/09/17 07:48:31;;;;;;;11.23;6.57;;;20.00;93.70;;;;;;5050860;28;20020;-86
2023/09/17 07:50:58;;;;;;;9.85;6.43;;;20.10;93.80;;;;;;5047588;28;20388;-85
2023/09/17 07:53:24;;;;;;;9.90;6.22;;;20.10;93.80;;;;;;5065810;28;20013;-86
2023/09/17 07:55:50;;;;;;;10.55;6.10;;;20.10;93.80;;;;;;5043603;28;20060;-85
2023/09/17 07:58:15;;;;;;;10.50;5.68;;;20.10;93.80;;;;;;5051131;28;20056;-85
2023/09/17 08:00:45;;;;;;;7.40;5.57;;;20.10;93.80;;;;;;5062868;28;20016;-85
2023/09/17 08:03:15;;;;;;;10.95;6.05;;;20.10;93.80;;;;;;5043439;28;20116;-85
2023/09/17 08:05:43;;;;;;;8.40;5.50;;;20.10;93.80;;;;;;5045672;28;20056;-86
2023/09/17 08:08:09;;;;;;;13.00;6.63;;;20.10;94.10;;;;;;5050965;28;20059;-86
2023/09/17 08:10:36;;;;;;;8.50;5.43;;;20.00;93.80;;;;;;5066729;28;20397;-86
2023/09/17 08:13:03;;;;;;;9.55;5.95;;;20.10;93.80;;;;;;5069035;28;20090;-85
2023/09/17 08:15:29;;;;;;;9.20;5.57;;;20.10;93.80;;;;;;5044850;28;20031;-92
2023/09/17 08:17:56;;;;;;;12.88;6.13;;;20.10;93.90;;;;;;5044272;28;20416;-85
2023/09/17 08:20:22;;;;;;;11.07;6.40;;;20.10;94.00;;;;;;5043074;28;20029;-92
2023/09/17 08:22:49;;;;;;;11.65;6.32;;;20.10;94.30;;;;;;5054645;28;20021;-92
2023/09/17 08:25:15;;;;;;;8.90;5.88;;;20.10;94.50;;;;;;5044213;28;20032;-90
2023/09/17 08:27:41;;;;;;;11.55;5.93;;;20.10;94.70;;;;;;5050475;28;20028;-91
2023/09/17 08:30:11;;;;;;;11.48;5.35;;;20.10;94.80;;;;;;5063963;28;20051;-89
2023/09/17 08:32:41;;;;;;;10.65;6.18;;;20.10;94.90;;;;;;5051766;28;20051;-89
2023/09/17 08:35:07;;;;;;;;;;;20.10;95.10;;;;;;5052767;28;20175;-90
2023/09/17 08:37:34;;;;;;;7.60;5.40;;;20.10;95.10;;;;;;5048854;28;19920;-90
2023/09/17 08:40:00;;;;;;;13.18;5.43;;;20.10;95.10;;;;;;5060694;28;20021;-90
2023/09/17 08:42:27;;;;;;;8.43;5.82;;;20.10;95.20;;;;;;5056747;28;20024;-86
2023/09/17 08:44:56;;;;;;;8.88;5.50;;;20.10;95.20;;;;;;5064626;28;20052;-90
2023/09/17 08:47:22;;;;;;;9.30;6.05;;;20.10;95.20;;;;;;5040692;28;20024;-91
2023/09/17 08:49:48;;;;;;;8.23;5.57;;;20.10;95.10;;;;;;5050822;28;20032;-91
2023/09/17 08:52:17;;;;;;;10.73;5.15;;;20.10;95.20;;;;;;5032498;28;20107;-90
2023/09/17 08:54:44;;;;;;;8.68;5.57;;;20.10;95.10;;;;;;5062193;28;20506;-90
2023/09/17 08:57:12;;;;;;;8.35;5.60;;;20.10;95.00;;;;;;5048558;28;20060;-90
2023/09/17 08:59:43;;;;;;;10.70;5.68;;;20.10;95.20;;;;;;5047473;28;20066;-90
2023/09/17 09:02:32;;;;;;;10.15;5.47;;;20.10;95.40;;;;;;5047984;28;20025;-89
2023/09/17 09:05:03;;;;;;;8.73;5.95;;;20.10;95.50;;;;;;5057453;28;20019;-89
2023/09/17 09:07:29;;;;;;;9.52;5.07;;;20.10;95.40;;;;;;5055314;28;20060;-89
2023/09/17 09:09:57;;;;;;;8.52;5.40;;;20.10;95.40;;;;;;5048000;28;20032;-91
2023/09/17 09:12:23;;;;;;;8.20;5.32;;;20.10;95.50;;;;;;5068933;28;20025;-90
2023/09/17 09:14:50;;;;;;;7.15;4.28;;;20.20;95.90;;;;;;5070572;28;20559;-91
2023/09/17 09:17:16;;;;;;;11.18;3.97;;;20.20;95.80;;;;;;5053128;28;20032;-90
2023/09/17 09:19:42;;;;;;;5.38;3.78;;;20.20;95.80;;;;;;5050487;28;20025;-89
2023/09/17 09:22:08;;;;;;;9.60;4.63;;;20.20;95.80;;;;;;5050754;28;20024;-90
2023/09/17 09:24:50;;;;;;;7.95;4.60;;;20.30;96.30;;;;;;5065644;28;20017;-91
2023/09/17 09:27:17;;;;;;;6.50;3.58;;;20.30;96.00;;;;;;5050941;28;20025;-89
2023/09/17 09:29:43;;;;;;;7.57;4.28;;;20.30;96.00;;;;;;5055309;28;20046;-89
2023/09/17 09:32:11;;;;;;;6.90;3.78;;;20.30;96.00;;;;;;5035861;28;20097;-89
2023/09/17 09:34:38;;;;;;;7.65;4.07;;;20.30;96.20;;;;;;5065320;28;20056;-89
2023/09/17 09:37:11;;;;;;;9.57;4.20;;;20.30;96.30;;;;;;5054412;28;20035;-92
2023/09/17 09:39:37;;;;;;;6.45;3.55;;;20.30;96.20;;;;;;5051549;28;20032;-93
2023/09/17 09:42:07;;;;;;;7.55;4.22;;;20.30;96.50;;;;;;5071151;28;20066;-89
2023/09/17 09:44:35;;;;;;;6.22;4.00;;;20.40;96.30;;;;;;5048741;28;20079;-90
2023/09/17 09:47:05;;;;;;;7.05;3.85;;;20.40;96.20;;;;;;5053495;28;20021;-89
2023/09/17 09:49:41;;;;;;;6.90;3.78;;;20.30;96.20;;;;;;5050212;28;20073;-91
2023/09/17 09:52:06;;;;;;;5.65;3.15;;;20.40;96.20;;;;;;5067669;28;20556;-89
2023/09/17 09:54:32;;;;;;;5.28;2.83;;;20.40;96.30;;;;;;5056627;28;20024;-91
2023/09/17 09:57:00;;;;;;;6.10;4.13;;;20.40;96.30;;;;;;5067928;28;20027;-90
2023/09/17 09:59:28;;;;;;;5.10;3.38;;;20.40;96.10;;;;;;5069058;28;20024;-89
2023/09/17 10:01:54;;;;;;;5.97;3.22;;;20.40;96.20;;;;;;5055737;28;20481;-89
2023/09/17 10:04:23;;;;;;;9.95;3.90;;;20.40;96.30;;;;;;5048377;28;20040;-88
2023/09/17 10:06:48;;;;;;;6.72;2.78;;;20.50;96.40;;;;;;5047843;28;20092;-91
2023/09/17 10:09:14;;;;;;;6.65;2.40;;;20.50;96.80;;;;;;5068890;28;20036;-88
2023/09/17 10:11:40;;;;;;;3.17;2.05;;;20.50;96.40;;;;;;5059592;28;20025;-90
2023/09/17 10:14:06;;;;;;;5.47;2.30;;;20.60;96.10;;;;;;5066444;28;20074;-88
2023/09/17 10:16:36;;;;;;;4.15;2.90;;;20.60;95.70;;;;;;5052484;28;20032;-89
2023/09/17 10:19:06;;;;;;;5.32;3.05;;;20.60;95.70;;;;;;5062548;28;20501;-91
2023/09/17 10:21:37;;;;;;;;;;;20.60;95.60;;;;;;5045596;28;20041;-90
2023/09/17 10:24:03;;;;;;;12.45;2.63;;;20.60;95.50;;;;;;5045204;28;19966;-89
2023/09/17 10:26:37;;;;;;;8.32;2.22;;;20.60;95.80;;;;;;5032651;28;20017;-90
2023/09/17 10:29:04;;;;;;;10.73;2.20;;;20.60;95.50;;;;;;5042601;28;20119;-91
2023/09/17 10:31:32;;;;;;;15.77;2.80;;;20.60;95.30;;;;;;5050015;28;20024;-89
2023/09/17 10:34:00;;;;;;;6.32;2.20;;;20.60;94.90;;;;;;5048375;28;20473;-89
2023/09/17 10:36:26;;;;;;;3.63;1.90;;;20.60;94.90;;;;;;5061972;28;20029;-89
2023/09/17 10:38:55;;;;;;;8.52;2.20;;;20.60;94.70;;;;;;5043930;28;20025;-91
2023/09/17 10:41:22;;;;;;;5.32;2.20;;;20.60;94.30;;;;;;5044668;28;20085;-90
2023/09/17 10:43:50;;;;;;;7.72;2.20;;;20.60;94.20;;;;;;5047617;28;20480;-88
2023/09/17 10:46:19;;;;;;;4.20;2.00;;;20.60;93.80;;;;;;5064875;28;20021;-89
2023/09/17 10:48:46;;;;;;;9.20;2.20;;;20.60;93.80;;;;;;5051069;28;20029;-88
2023/09/17 10:51:12;;;;;;;6.22;2.25;;;20.60;93.90;;;;;;5058395;28;20021;-89
2023/09/17 10:53:38;;;;;;;5.03;2.40;;;20.60;93.90;;;;;;5049079;28;20040;-92
2023/09/17 10:56:08;;;;;;;2.53;1.92;;;20.70;94.00;;;;;;5046790;28;20036;-87
2023/09/17 10:58:38;;;;;;;;;;;20.70;94.10;;;;;;5045504;28;20056;-90
2023/09/17 11:01:07;;;;;;;6.95;2.67;;;20.70;94.00;;;;;;5041661;28;19908;-91
2023/09/17 11:03:35;;;;;;;12.80;2.72;;;20.70;94.20;;;;;;5045994;28;20028;-90
2023/09/17 11:06:14;;;;;;;6.95;2.42;;;20.80;94.30;;;;;;5061431;28;20020;-90
2023/09/17 11:08:45;;;;;;;11.40;2.47;;;20.80;94.30;;;;;;5046559;28;21104;-90
2023/09/17 11:11:32;;;;;;;8.10;2.33;;;20.80;94.50;;;;;;5045579;28;20032;-86
2023/09/17 11:13:58;;;;;;;3.60;2.90;;;20.90;94.10;;;;;;5062446;28;20032;-89
2023/09/17 11:16:28;;;;;;;8.38;2.40;;;20.90;93.90;;;;;;5050855;28;20028;-92
2023/09/17 11:19:13;;;;;;;11.40;2.03;;;20.90;93.80;;;;;;5067141;28;20111;-92
2023/09/17 11:21:47;;;;;;;3.65;1.63;;;21.00;93.40;;;;;;5052673;28;20040;-89
2023/09/17 11:24:12;;;;;;;4.63;1.90;;;21.00;93.60;;;;;;5049728;28;20029;-89
2023/09/17 11:26:44;;;;;;;6.45;1.77;;;21.00;93.40;;;;;;5062046;28;20033;-91
2023/09/17 11:29:10;;;;;;;8.65;2.50;;;21.00;93.40;;;;;;5052709;28;20033;-89
2023/09/17 11:31:59;;;;;;;6.18;2.40;;;21.10;93.60;;;;;;5049577;28;20036;-87
2023/09/17 11:34:25;;;;;;;10.52;2.15;;;21.10;93.60;;;;;;5039153;28;20036;-88
2023/09/17 11:36:52;;;;;;;5.63;2.13;;;21.10;93.60;;;;;;5062942;28;20734;-89
2023/09/17 11:39:21;;;;;;;3.78;2.00;;;21.20;93.70;;;;;;5065506;28;20024;-91
2023/09/17 11:41:52;;;;;;;8.95;2.42;;;21.20;93.50;;;;;;5067055;28;20021;-90
2023/09/17 11:44:20;;;;;;;4.90;2.47;;;21.20;93.30;;;;;;5048731;28;20023;-89
2023/09/17 11:46:46;;;;;;;4.05;1.90;;;21.20;93.50;;;;;;5052240;28;20492;-91
2023/09/17 11:49:13;;;;;;;9.57;3.08;;;21.20;93.80;;;;;;5054074;28;20028;-90
2023/09/17 11:51:43;;;;;;;4.70;2.60;;;21.30;93.30;;;;;;5069010;28;20406;-93
2023/09/17 11:54:15;;;;;;;3.75;2.72;;;21.30;93.70;;;;;;5050110;28;20408;-95
2023/09/17 11:56:50;;;;;;;6.63;2.40;;;21.30;94.20;;;;;;5048070;28;20444;-91
2023/09/17 11:59:16;;;;;;;7.72;2.33;;;21.30;94.10;;;;;;5061386;28;20028;-89
2023/09/17 12:01:57;;;;;;;3.63;2.15;;;21.30;94.20;;;;;;5050634;28;20031;-90
2023/09/17 12:04:29;;;;;;;;;;;21.40;94.10;;;;;;5052149;28;20032;-93
2023/09/17 12:06:58;;;;;;;4.65;2.45;;;21.50;94.40;;;;;;5055050;28;20369;-91
2023/09/17 12:12:05;;;;;;;5.50;2.95;;;21.50;94.50;;;;;;5064941;28;20028;-90
2023/09/17 12:14:32;;;;;;;6.22;3.05;;;21.50;94.40;;;;;;5066475;28;20112;-90
2023/09/17 12:16:58;;;;;;;5.75;2.85;;;21.50;94.60;;;;;;5048080;28;20028;-91
2023/09/17 12:19:25;;;;;;;9.25;2.65;;;21.60;94.70;;;;;;5048659;28;20029;-92
2023/09/17 12:21:53;;;;;;;9.65;3.15;;;21.50;94.60;;;;;;5050425;28;20051;-93
2023/09/17 12:24:35;;;;;;;9.05;3.20;;;21.50;94.90;;;;;;5052209;28;20047;-88
2023/09/17 12:29:35;;;;;;;5.18;2.88;;;21.50;94.90;;;;;;5067608;28;20389;-94
2023/09/17 12:32:01;;;;;;;5.97;3.53;;;21.60;94.90;;;;;;5051794;28;20035;-91
2023/09/17 12:34:27;;;;;;;11.48;3.03;;;21.60;95.10;;;;;;5049617;28;20024;-91
2023/09/17 12:36:53;;;;;;;7.00;2.60;;;21.60;95.00;;;;;;5049653;28;20020;-93
2023/09/17 12:39:19;;;;;;;3.30;2.38;;;21.60;94.90;;;;;;5065399;28;20078;-92
2023/09/17 12:41:45;;;;;;;9.00;2.42;;;21.70;94.50;;;;;;5069157;28;20020;-92
2023/09/17 12:44:14;;;;;;;4.47;2.00;;;21.70;94.30;;;;;;5052746;28;20013;-95
2023/09/17 12:46:40;;;;;;;11.77;2.93;;;21.70;94.20;;;;;;5045513;28;20047;-91
2023/09/17 12:49:07;;;;;;;7.20;2.65;;;21.70;94.10;;;;;;5049011;28;20371;-91
2023/09/17 12:51:34;;;;;;;5.28;2.10;;;21.70;94.10;;;;;;5047057;28;20504;-86
2023/09/17 12:53:59;;;;;;;6.78;2.40;;;21.70;93.90;;;;;;5067150;28;20330;-94
2023/09/17 12:56:30;;;;;;;10.13;2.33;;;21.70;93.50;;;;;;5051787;28;20035;-90
2023/09/17 12:58:57;;;;;;;4.15;1.98;;;21.70;93.40;;;;;;5052301;28;20099;-91
2023/09/17 13:01:23;;;;;;;5.40;1.38;;;21.80;92.90;;;;;;5045710;28;20026;-91
2023/09/17 13:04:04;;;;;;;8.65;2.17;;;21.70;92.60;;;;;;5062060;28;20677;-91
2023/09/17 13:06:34;;;;;;;6.80;1.90;;;21.70;91.90;;;;;;5049747;28;20607;-91
2023/09/17 13:09:02;;;;;;;1.67;1.30;;;21.80;91.10;;;;;;5048087;28;20630;-88
2023/09/17 13:11:28;;;;;;;4.82;2.25;;;21.70;91.30;;;;;;5045479;28;20032;-90
2023/09/17 13:13:56;;;;;;;2.85;1.65;;;21.70;91.30;;;;;;5062338;28;20031;-96
2023/09/17 13:16:22;;;;;;;6.60;2.00;;;21.70;91.40;;;;;;5068684;28;20100;-93
2023/09/17 13:18:49;;;;;;;3.47;1.70;;;21.70;91.30;;;;;;5051397;28;20116;-93
2023/09/17 13:21:16;;;;;;;6.20;1.60;;;21.70;91.20;;;;;;5045077;28;20027;-93
2023/09/17 13:23:42;;;;;;;6.32;1.73;;;21.70;91.20;;;;;;5069080;28;20405;-91
2023/09/17 13:26:09;;;;;;;4.13;1.70;;;21.70;91.30;;;;;;5049787;28;20023;-92
2023/09/17 13:28:36;;;;;;;12.98;1.80;;;21.70;91.50;;;;;;5039315;28;20473;-92
2023/09/17 13:31:03;;;;;;;2.70;1.85;;;21.80;91.40;;;;;;5047468;28;20036;-91
2023/09/17 13:33:37;;;;;;;2.58;1.80;;;21.70;91.30;;;;;;5062305;28;20032;-95
2023/09/17 13:36:05;;;;;;;6.68;2.95;;;21.70;91.30;;;;;;5064867;28;20032;-94
2023/09/17 13:38:31;;;;;;;8.15;2.20;;;21.80;91.10;;;;;;5063697;28;20016;-91
2023/09/17 13:40:57;;;;;;;8.52;2.40;;;21.80;91.40;;;;;;5062805;28;20363;-92
2023/09/17 13:43:22;;;;;;;4.70;2.25;;;21.80;91.50;;;;;;5052050;28;20028;-94
2023/09/17 13:45:53;;;;;;;2.42;1.55;;;21.80;91.50;;;;;;5048690;28;20016;-90
2023/09/17 13:48:20;;;;;;;3.33;1.90;;;21.80;91.50;;;;;;5062799;28;20031;-92
2023/09/17 13:50:47;;;;;;;3.13;2.00;;;21.80;91.10;;;;;;5046747;28;20031;-92
2023/09/17 13:53:16;;;;;;;4.82;2.30;;;21.80;90.80;;;;;;5050556;28;20029;-90
2023/09/17 13:55:41;;;;;;;4.38;2.22;;;21.90;90.90;;;;;;5064870;28;20121;-95
2023/09/17 13:58:07;;;;;;;1.98;1.80;;;21.80;91.00;;;;;;5064161;28;20074;-95
2023/09/17 14:00:33;;;;;;;4.78;2.25;;;21.80;91.40;;;;;;5048039;28;20507;-90
2023/09/17 14:03:15;;;;;;;5.65;2.17;;;21.90;91.50;;;;;;5062800;28;20118;-91
2023/09/17 14:05:42;;;;;;;5.80;2.50;;;22.00;91.50;;;;;;5049685;28;20033;-94
2023/09/17 14:08:11;;;;;;;4.32;1.95;;;21.90;91.40;;;;;;5068394;28;20024;-89
2023/09/17 14:10:37;;;;;;;4.40;2.20;;;21.90;91.60;;;;;;5057182;28;20025;-92
2023/09/17 14:13:05;;;;;;;9.52;2.45;;;21.90;91.50;;;;;;5067237;28;20024;-94
2023/09/17 14:15:36;;;;;;;10.80;2.30;;;21.90;91.90;;;;;;5050207;28;20110;-92
2023/09/17 14:18:02;;;;;;;7.03;2.00;;;21.90;92.30;;;;;;5056162;28;20025;-89
2023/09/17 14:20:29;;;;;;;4.47;2.30;;;21.90;92.00;;;;;;5062156;28;20052;-88
2023/09/17 14:22:55;;;;;;;6.07;2.60;;;21.90;91.90;;;;;;5063201;28;20012;-93
2023/09/17 14:25:21;;;;;;;5.53;2.20;;;21.90;91.90;;;;;;5060614;28;20016;-89
2023/09/17 14:27:47;;;;;;;5.45;2.05;;;21.90;91.60;;;;;;5047671;28;20443;-90
2023/09/17 14:30:16;;;;;;;6.28;1.85;;;21.90;92.00;;;;;;5059693;28;20052;-87
2023/09/17 14:32:42;;;;;;;4.97;2.03;;;21.90;91.90;;;;;;5061251;28;20107;-88
2023/09/17 14:35:09;;;;;;;9.98;1.88;;;21.90;91.80;;;;;;5046691;28;20032;-90
2023/09/17 14:37:34;;;;;;;9.88;2.25;;;21.90;91.80;;;;;;5059894;28;20028;-91
2023/09/17 14:40:00;;;;;;;6.72;2.33;;;21.90;91.60;;;;;;5062365;28;20044;-91
2023/09/17 14:42:26;;;;;;;6.72;2.95;;;21.90;91.80;;;;;;5067180;28;20478;-89
2023/09/17 14:44:51;;;;;;;4.30;2.20;;;21.90;91.60;;;;;;5059392;28;20040;-93
2023/09/17 14:47:17;;;;;;;8.95;2.22;;;21.90;91.30;;;;;;5061013;28;20073;-93
2023/09/17 14:49:43;;;;;;;3.60;2.30;;;21.90;91.40;;;;;;5047569;28;20075;-94
2023/09/17 14:52:08;;;;;;;7.03;2.58;;;21.90;91.40;;;;;;5060711;28;20469;-91
2023/09/17 14:54:34;;;;;;;7.15;2.47;;;21.90;90.90;;;;;;5043842;28;20029;-91
2023/09/17 14:57:00;;;;;;;5.35;2.45;;;21.90;90.80;;;;;;5064465;28;20056;-92
2023/09/17 14:59:26;;;;;;;9.57;3.90;;;21.90;90.90;;;;;;5050663;28;20055;-94
2023/09/17 15:01:51;;;;;;;6.53;2.40;;;21.80;90.80;;;;;;5045180;28;20481;-92
2023/09/17 15:04:17;;;;;;;1.67;1.30;;;21.80;90.60;;;;;;5065899;28;20135;-91
2023/09/17 15:06:42;;;;;;;4.47;1.30;;;21.80;90.70;;;;;;5050305;28;20555;-90
2023/09/17 15:09:09;;;;;;;3.10;1.38;;;21.80;90.70;;;;;;5048945;28;20440;-91
2023/09/17 15:11:34;;;;;;;4.15;1.80;;;21.80;90.30;;;;;;5051060;28;20385;-89
2023/09/17 15:14:00;;;;;;;3.65;2.10;;;21.80;90.00;;;;;;5060064;28;20029;-92
2023/09/17 15:16:26;;;;;;;8.88;2.20;;;21.80;90.30;;;;;;5048789;28;20082;-95
2023/09/17 15:18:52;;;;;;;4.07;1.83;;;21.80;90.00;;;;;;5064078;28;20029;-92
2023/09/17 15:21:18;;;;;;;4.70;2.90;;;21.80;90.50;;;;;;5061012;28;20021;-90
2023/09/17 15:23:43;;;;;;;4.13;2.15;;;21.80;90.50;;;;;;5048685;28;20025;-92
2023/09/17 15:26:09;;;;;;;9.30;1.95;;;21.80;90.50;;;;;;5063187;28;20043;-87
2023/09/17 15:28:35;;;;;;;3.45;1.80;;;21.80;90.40;;;;;;5038760;28;20111;-92
2023/09/17 15:31:00;;;;;;;5.65;2.13;;;21.80;90.40;;;;;;5059155;28;20025;-96
2023/09/17 15:33:28;;;;;;;5.55;2.17;;;21.80;90.80;;;;;;5045512;28;20021;-92
2023/09/17 15:35:54;;;;;;;4.90;2.20;;;21.70;90.40;;;;;;5055096;28;20065;-93
2023/09/17 15:38:20;;;;;;;6.93;2.45;;;21.70;90.40;;;;;;5063787;28;20032;-90
2023/09/17 15:40:50;;;;;;;8.50;2.50;;;21.70;90.50;;;;;;5062502;28;20620;-91
2023/09/17 15:43:16;;;;;;;4.45;2.20;;;21.80;90.30;;;;;;5048589;28;20115;-92
2023/09/17 15:45:41;;;;;;;4.70;2.30;;;21.70;90.30;;;;;;5039128;28;20116;-93
2023/09/17 15:48:07;;;;;;;3.50;1.90;;;21.80;90.30;;;;;;5063945;28;20046;-88
2023/09/17 15:50:33;;;;;;;11.25;2.17;;;21.70;90.30;;;;;;5040400;28;20025;-93
2023/09/17 15:52:59;;;;;;;3.53;2.13;;;21.70;90.00;;;;;;5051774;28;20033;-92